sensor_id;sensor_type;location;lat;lon;timestamp;P1;durP1;ratioP1;P2;durP2;ratioP2
53309;SDS011;39197;53.200;5.792;2023-05-17T00:00:32;42.95;;;12.00;;
53309;SDS011;39197;53.200;5.792;2023-05-17T00:02:58;40.70;;;9.82;;
53309;SDS011;39197;53.200;5.792;2023-05-17T00:05:23;41.97;;;13.30;;
53309;SDS011;39197;53.200;5.792;2023-05-17T00:07:49;36.47;;;9.23;;
53309;SDS011;39197;53.200;5.792;2023-05-17T00:10:15;59.83;;;21.77;;
53309;SDS011;39197;53.200;5.792;2023-05-17T00:12:41;45.70;;;12.77;;
53309;SDS011;39197;53.200;5.792;2023-05-17T00:15:06;36.97;;;13.00;;
53309;SDS011;39197;53.200;5.792;2023-05-17T00:17:32;36.70;;;12.07;;
53309;SDS011;39197;53.200;5.792;2023-05-17T00:19:58;27.40;;;5.30;;
53309;SDS011;39197;53.200;5.792;2023-05-17T00:22:23;31.75;;;7.90;;
53309;SDS011;39197;53.200;5.792;2023-05-17T00:24:49;42.20;;;8.80;;
53309;SDS011;39197;53.200;5.792;2023-05-17T00:27:15;29.42;;;7.00;;
53309;SDS011;39197;53.200;5.792;2023-05-17T00:29:40;31.27;;;8.45;;
53309;SDS011;39197;53.200;5.792;2023-05-17T00:32:06;33.38;;;9.82;;
53309;SDS011;39197;53.200;5.792;2023-05-17T00:34:31;32.42;;;8.65;;
53309;SDS011;39197;53.200;5.792;2023-05-17T00:36:57;26.20;;;6.57;;
53309;SDS011;39197;53.200;5.792;2023-05-17T00:39:23;28.15;;;7.15;;
53309;SDS011;39197;53.200;5.792;2023-05-17T00:41:48;30.85;;;7.93;;
53309;SDS011;39197;53.200;5.792;2023-05-17T00:44:14;21.65;;;5.05;;
53309;SDS011;39197;53.200;5.792;2023-05-17T00:46:39;32.22;;;6.85;;
53309;SDS011;39197;53.200;5.792;2023-05-17T00:49:05;37.05;;;8.50;;
53309;SDS011;39197;53.200;5.792;2023-05-17T00:51:31;34.35;;;7.57;;
53309;SDS011;39197;53.200;5.792;2023-05-17T00:53:58;25.95;;;6.50;;
53309;SDS011;39197;53.200;5.792;2023-05-17T00:56:24;27.85;;;7.60;;
53309;SDS011;39197;53.200;5.792;2023-05-17T00:58:50;31.58;;;9.00;;
53309;SDS011;39197;53.200;5.792;2023-05-17T01:01:16;38.35;;;13.35;;
53309;SDS011;39197;53.200;5.792;2023-05-17T01:03:42;36.30;;;8.60;;
53309;SDS011;39197;53.200;5.792;2023-05-17T01:06:07;24.30;;;8.52;;
53309;SDS011;39197;53.200;5.792;2023-05-17T01:08:33;32.33;;;7.55;;
53309;SDS011;39197;53.200;5.792;2023-05-17T01:16:14;30.33;;;7.95;;
53309;SDS011;39197;53.200;5.792;2023-05-17T01:18:47;33.72;;;10.93;;
53309;SDS011;39197;53.200;5.792;2023-05-17T01:21:34;45.63;;;11.93;;
53309;SDS011;39197;53.200;5.792;2023-05-17T01:24:23;30.90;;;8.05;;
53309;SDS011;39197;53.200;5.792;2023-05-17T01:26:53;34.58;;;7.18;;
53309;SDS011;39197;53.200;5.792;2023-05-17T01:29:22;27.30;;;5.85;;
53309;SDS011;39197;53.200;5.792;2023-05-17T01:31:50;23.75;;;3.38;;
53309;SDS011;39197;53.200;5.792;2023-05-17T01:34:26;16.00;;;2.70;;
53309;SDS011;39197;53.200;5.792;2023-05-17T01:36:52;20.38;;;4.65;;
53309;SDS011;39197;53.200;5.792;2023-05-17T01:39:18;18.95;;;2.67;;
53309;SDS011;39197;53.200;5.792;2023-05-17T01:41:45;18.85;;;2.67;;
53309;SDS011;39197;53.200;5.792;2023-05-17T01:44:25;21.50;;;2.65;;
53309;SDS011;39197;53.200;5.792;2023-05-17T01:47:12;19.70;;;3.60;;
53309;SDS011;39197;53.200;5.792;2023-05-17T01:49:59;21.98;;;4.55;;
53309;SDS011;39197;53.200;5.792;2023-05-17T01:52:28;15.57;;;3.60;;
53309;SDS011;39197;53.200;5.792;2023-05-17T01:57:44;18.65;;;2.30;;
53309;SDS011;39197;53.200;5.792;2023-05-17T02:00:13;19.80;;;2.03;;
53309;SDS011;39197;53.200;5.792;2023-05-17T02:02:40;16.15;;;2.08;;
53309;SDS011;39197;53.200;5.792;2023-05-17T02:05:06;14.35;;;2.47;;
53309;SDS011;39197;53.200;5.792;2023-05-17T02:07:32;18.10;;;2.35;;
53309;SDS011;39197;53.200;5.792;2023-05-17T02:09:57;17.45;;;1.90;;
53309;SDS011;39197;53.200;5.792;2023-05-17T02:12:23;21.25;;;3.20;;
53309;SDS011;39197;53.200;5.792;2023-05-17T02:14:49;13.05;;;1.60;;
53309;SDS011;39197;53.200;5.792;2023-05-17T02:17:15;14.82;;;2.08;;
53309;SDS011;39197;53.200;5.792;2023-05-17T02:19:40;19.83;;;2.45;;
53309;SDS011;39197;53.200;5.792;2023-05-17T02:22:06;12.05;;;1.42;;
53309;SDS011;39197;53.200;5.792;2023-05-17T02:24:31;10.77;;;1.98;;
53309;SDS011;39197;53.200;5.792;2023-05-17T02:26:57;12.23;;;1.40;;
53309;SDS011;39197;53.200;5.792;2023-05-17T02:29:22;13.82;;;1.23;;
53309;SDS011;39197;53.200;5.792;2023-05-17T02:31:48;12.98;;;1.70;;
53309;SDS011;39197;53.200;5.792;2023-05-17T02:34:13;10.23;;;1.67;;
53309;SDS011;39197;53.200;5.792;2023-05-17T02:36:39;14.30;;;1.55;;
53309;SDS011;39197;53.200;5.792;2023-05-17T02:39:05;12.05;;;1.20;;
53309;SDS011;39197;53.200;5.792;2023-05-17T02:41:30;11.73;;;1.00;;
53309;SDS011;39197;53.200;5.792;2023-05-17T02:43:56;11.98;;;0.80;;
53309;SDS011;39197;53.200;5.792;2023-05-17T02:46:22;18.75;;;2.40;;
53309;SDS011;39197;53.200;5.792;2023-05-17T02:48:47;14.57;;;1.77;;
53309;SDS011;39197;53.200;5.792;2023-05-17T02:51:13;17.27;;;1.70;;
53309;SDS011;39197;53.200;5.792;2023-05-17T02:53:38;7.80;;;1.50;;
53309;SDS011;39197;53.200;5.792;2023-05-17T02:56:04;6.97;;;1.02;;
53309;SDS011;39197;53.200;5.792;2023-05-17T02:58:30;9.95;;;1.15;;
53309;SDS011;39197;53.200;5.792;2023-05-17T03:00:55;10.82;;;1.27;;
53309;SDS011;39197;53.200;5.792;2023-05-17T03:03:21;14.85;;;2.17;;
53309;SDS011;39197;53.200;5.792;2023-05-17T03:05:46;18.65;;;1.40;;
53309;SDS011;39197;53.200;5.792;2023-05-17T03:08:12;13.52;;;1.48;;
53309;SDS011;39197;53.200;5.792;2023-05-17T03:10:37;10.20;;;1.40;;
53309;SDS011;39197;53.200;5.792;2023-05-17T03:13:03;17.08;;;2.50;;
53309;SDS011;39197;53.200;5.792;2023-05-17T03:15:28;11.70;;;1.60;;
53309;SDS011;39197;53.200;5.792;2023-05-17T03:17:54;15.88;;;1.50;;
53309;SDS011;39197;53.200;5.792;2023-05-17T03:20:21;15.40;;;1.77;;
53309;SDS011;39197;53.200;5.792;2023-05-17T03:22:46;16.77;;;2.40;;
53309;SDS011;39197;53.200;5.792;2023-05-17T03:25:12;14.95;;;1.58;;
53309;SDS011;39197;53.200;5.792;2023-05-17T03:27:38;13.65;;;1.45;;
53309;SDS011;39197;53.200;5.792;2023-05-17T03:30:03;13.30;;;1.45;;
53309;SDS011;39197;53.200;5.792;2023-05-17T03:32:29;10.63;;;1.90;;
53309;SDS011;39197;53.200;5.792;2023-05-17T03:34:55;11.23;;;1.17;;
53309;SDS011;39197;53.200;5.792;2023-05-17T03:37:20;10.30;;;1.30;;
53309;SDS011;39197;53.200;5.792;2023-05-17T03:39:46;14.30;;;1.13;;
53309;SDS011;39197;53.200;5.792;2023-05-17T03:42:12;11.32;;;1.35;;
53309;SDS011;39197;53.200;5.792;2023-05-17T03:44:38;9.85;;;1.10;;
53309;SDS011;39197;53.200;5.792;2023-05-17T03:47:04;12.98;;;1.25;;
53309;SDS011;39197;53.200;5.792;2023-05-17T03:49:30;16.60;;;1.52;;
53309;SDS011;39197;53.200;5.792;2023-05-17T03:51:56;8.60;;;1.60;;
53309;SDS011;39197;53.200;5.792;2023-05-17T03:54:21;9.27;;;0.93;;
53309;SDS011;39197;53.200;5.792;2023-05-17T03:56:47;11.50;;;1.13;;
53309;SDS011;39197;53.200;5.792;2023-05-17T03:59:14;8.20;;;0.93;;
53309;SDS011;39197;53.200;5.792;2023-05-17T04:01:41;11.50;;;0.95;;
53309;SDS011;39197;53.200;5.792;2023-05-17T04:04:07;10.60;;;1.42;;
53309;SDS011;39197;53.200;5.792;2023-05-17T04:06:32;13.68;;;1.02;;
53309;SDS011;39197;53.200;5.792;2023-05-17T04:08:58;18.05;;;1.20;;
53309;SDS011;39197;53.200;5.792;2023-05-17T04:11:24;10.75;;;1.00;;
53309;SDS011;39197;53.200;5.792;2023-05-17T04:13:51;8.55;;;0.70;;
53309;SDS011;39197;53.200;5.792;2023-05-17T04:16:18;9.88;;;1.42;;
53309;SDS011;39197;53.200;5.792;2023-05-17T04:18:43;13.80;;;2.42;;
53309;SDS011;39197;53.200;5.792;2023-05-17T04:21:09;13.40;;;1.55;;
53309;SDS011;39197;53.200;5.792;2023-05-17T04:23:35;9.95;;;0.88;;
53309;SDS011;39197;53.200;5.792;2023-05-17T04:26:01;9.02;;;0.85;;
53309;SDS011;39197;53.200;5.792;2023-05-17T04:28:28;5.22;;;0.88;;
53309;SDS011;39197;53.200;5.792;2023-05-17T04:30:54;11.02;;;1.30;;
53309;SDS011;39197;53.200;5.792;2023-05-17T04:33:20;11.70;;;1.08;;
53309;SDS011;39197;53.200;5.792;2023-05-17T04:35:46;6.53;;;0.93;;
53309;SDS011;39197;53.200;5.792;2023-05-17T04:38:12;5.45;;;0.70;;
53309;SDS011;39197;53.200;5.792;2023-05-17T04:40:38;6.90;;;0.75;;
53309;SDS011;39197;53.200;5.792;2023-05-17T04:43:03;7.50;;;0.75;;
53309;SDS011;39197;53.200;5.792;2023-05-17T04:45:29;8.88;;;1.23;;
53309;SDS011;39197;53.200;5.792;2023-05-17T04:47:55;8.68;;;0.60;;
53309;SDS011;39197;53.200;5.792;2023-05-17T04:50:20;12.35;;;0.77;;
53309;SDS011;39197;53.200;5.792;2023-05-17T04:52:46;8.48;;;1.38;;
53309;SDS011;39197;53.200;5.792;2023-05-17T04:55:12;8.93;;;1.10;;
53309;SDS011;39197;53.200;5.792;2023-05-17T04:57:38;10.45;;;1.52;;
53309;SDS011;39197;53.200;5.792;2023-05-17T05:00:04;9.98;;;0.90;;
53309;SDS011;39197;53.200;5.792;2023-05-17T05:02:31;15.70;;;1.90;;
53309;SDS011;39197;53.200;5.792;2023-05-17T05:04:57;7.85;;;1.10;;
53309;SDS011;39197;53.200;5.792;2023-05-17T05:07:23;12.23;;;1.08;;
53309;SDS011;39197;53.200;5.792;2023-05-17T05:09:48;10.95;;;1.13;;
53309;SDS011;39197;53.200;5.792;2023-05-17T05:12:14;10.23;;;1.20;;
53309;SDS011;39197;53.200;5.792;2023-05-17T05:14:40;10.32;;;1.33;;
53309;SDS011;39197;53.200;5.792;2023-05-17T05:17:06;10.57;;;1.00;;
53309;SDS011;39197;53.200;5.792;2023-05-17T05:19:32;14.98;;;1.77;;
53309;SDS011;39197;53.200;5.792;2023-05-17T05:21:57;16.85;;;1.52;;
53309;SDS011;39197;53.200;5.792;2023-05-17T05:24:23;14.13;;;2.08;;
53309;SDS011;39197;53.200;5.792;2023-05-17T05:26:48;11.45;;;1.00;;
53309;SDS011;39197;53.200;5.792;2023-05-17T05:29:14;11.77;;;1.20;;
53309;SDS011;39197;53.200;5.792;2023-05-17T05:31:39;20.80;;;2.58;;
53309;SDS011;39197;53.200;5.792;2023-05-17T05:34:05;10.98;;;1.23;;
53309;SDS011;39197;53.200;5.792;2023-05-17T05:36:31;13.50;;;1.80;;
53309;SDS011;39197;53.200;5.792;2023-05-17T05:38:57;17.30;;;1.95;;
53309;SDS011;39197;53.200;5.792;2023-05-17T05:41:22;18.67;;;3.83;;
53309;SDS011;39197;53.200;5.792;2023-05-17T05:43:48;18.10;;;3.08;;
53309;SDS011;39197;53.200;5.792;2023-05-17T05:46:13;16.48;;;2.03;;
53309;SDS011;39197;53.200;5.792;2023-05-17T05:48:39;24.75;;;7.07;;
53309;SDS011;39197;53.200;5.792;2023-05-17T05:51:06;22.95;;;3.05;;
53309;SDS011;39197;53.200;5.792;2023-05-17T05:53:32;19.33;;;2.15;;
53309;SDS011;39197;53.200;5.792;2023-05-17T05:55:57;14.40;;;2.08;;
53309;SDS011;39197;53.200;5.792;2023-05-17T05:58:23;13.40;;;2.50;;
53309;SDS011;39197;53.200;5.792;2023-05-17T06:00:48;12.10;;;1.85;;
53309;SDS011;39197;53.200;5.792;2023-05-17T06:03:14;16.17;;;1.85;;
53309;SDS011;39197;53.200;5.792;2023-05-17T06:05:40;15.45;;;2.20;;
53309;SDS011;39197;53.200;5.792;2023-05-17T06:08:06;14.43;;;1.75;;
53309;SDS011;39197;53.200;5.792;2023-05-17T06:10:32;16.08;;;2.58;;
53309;SDS011;39197;53.200;5.792;2023-05-17T06:12:57;15.70;;;2.50;;
53309;SDS011;39197;53.200;5.792;2023-05-17T06:15:23;13.48;;;1.85;;
53309;SDS011;39197;53.200;5.792;2023-05-17T06:17:51;13.05;;;2.15;;
53309;SDS011;39197;53.200;5.792;2023-05-17T06:20:17;16.50;;;2.28;;
53309;SDS011;39197;53.200;5.792;2023-05-17T06:22:42;10.77;;;1.70;;
53309;SDS011;39197;53.200;5.792;2023-05-17T06:25:08;16.20;;;2.97;;
53309;SDS011;39197;53.200;5.792;2023-05-17T06:27:37;14.70;;;1.70;;
53309;SDS011;39197;53.200;5.792;2023-05-17T06:30:03;13.75;;;1.42;;
53309;SDS011;39197;53.200;5.792;2023-05-17T06:32:30;13.25;;;1.52;;
53309;SDS011;39197;53.200;5.792;2023-05-17T06:34:55;17.20;;;2.13;;
53309;SDS011;39197;53.200;5.792;2023-05-17T06:37:21;15.32;;;2.22;;
53309;SDS011;39197;53.200;5.792;2023-05-17T06:39:49;13.20;;;1.65;;
53309;SDS011;39197;53.200;5.792;2023-05-17T06:42:15;8.35;;;1.33;;
53309;SDS011;39197;53.200;5.792;2023-05-17T06:44:41;14.73;;;1.60;;
53309;SDS011;39197;53.200;5.792;2023-05-17T06:47:07;14.82;;;1.70;;
53309;SDS011;39197;53.200;5.792;2023-05-17T06:49:33;17.92;;;1.90;;
53309;SDS011;39197;53.200;5.792;2023-05-17T06:51:58;10.25;;;1.77;;
53309;SDS011;39197;53.200;5.792;2023-05-17T06:54:27;16.58;;;1.98;;
53309;SDS011;39197;53.200;5.792;2023-05-17T06:56:59;15.00;;;1.45;;
53309;SDS011;39197;53.200;5.792;2023-05-17T06:59:25;12.10;;;1.98;;
53309;SDS011;39197;53.200;5.792;2023-05-17T07:01:51;19.38;;;5.32;;
53309;SDS011;39197;53.200;5.792;2023-05-17T07:04:17;10.82;;;1.83;;
53309;SDS011;39197;53.200;5.792;2023-05-17T07:06:43;14.30;;;2.22;;
53309;SDS011;39197;53.200;5.792;2023-05-17T07:09:08;14.98;;;2.63;;
53309;SDS011;39197;53.200;5.792;2023-05-17T07:11:34;18.77;;;2.33;;
53309;SDS011;39197;53.200;5.792;2023-05-17T07:14:00;16.73;;;1.83;;
53309;SDS011;39197;53.200;5.792;2023-05-17T07:16:25;13.95;;;2.70;;
53309;SDS011;39197;53.200;5.792;2023-05-17T07:18:51;14.35;;;2.33;;
53309;SDS011;39197;53.200;5.792;2023-05-17T07:21:16;12.80;;;1.60;;
53309;SDS011;39197;53.200;5.792;2023-05-17T07:23:42;9.27;;;2.20;;
53309;SDS011;39197;53.200;5.792;2023-05-17T07:26:07;10.65;;;1.65;;
53309;SDS011;39197;53.200;5.792;2023-05-17T07:28:33;13.45;;;1.95;;
53309;SDS011;39197;53.200;5.792;2023-05-17T07:30:59;10.65;;;2.70;;
53309;SDS011;39197;53.200;5.792;2023-05-17T07:33:25;15.15;;;2.53;;
53309;SDS011;39197;53.200;5.792;2023-05-17T07:35:51;14.23;;;1.95;;
53309;SDS011;39197;53.200;5.792;2023-05-17T07:38:16;9.82;;;1.60;;
53309;SDS011;39197;53.200;5.792;2023-05-17T07:40:42;13.13;;;1.95;;
53309;SDS011;39197;53.200;5.792;2023-05-17T07:43:08;13.30;;;1.73;;
53309;SDS011;39197;53.200;5.792;2023-05-17T07:45:33;11.77;;;1.88;;
53309;SDS011;39197;53.200;5.792;2023-05-17T07:47:59;12.45;;;1.92;;
53309;SDS011;39197;53.200;5.792;2023-05-17T07:50:25;10.57;;;2.38;;
53309;SDS011;39197;53.200;5.792;2023-05-17T07:52:51;15.35;;;1.88;;
53309;SDS011;39197;53.200;5.792;2023-05-17T07:55:17;12.90;;;2.13;;
53309;SDS011;39197;53.200;5.792;2023-05-17T07:57:43;8.55;;;1.73;;
53309;SDS011;39197;53.200;5.792;2023-05-17T08:00:11;11.52;;;1.58;;
53309;SDS011;39197;53.200;5.792;2023-05-17T08:02:38;14.73;;;2.05;;
53309;SDS011;39197;53.200;5.792;2023-05-17T08:05:04;17.65;;;1.90;;
53309;SDS011;39197;53.200;5.792;2023-05-17T08:07:30;13.82;;;2.70;;
53309;SDS011;39197;53.200;5.792;2023-05-17T08:09:56;16.25;;;2.40;;
53309;SDS011;39197;53.200;5.792;2023-05-17T08:12:21;19.42;;;2.45;;
53309;SDS011;39197;53.200;5.792;2023-05-17T08:14:47;15.13;;;2.13;;
53309;SDS011;39197;53.200;5.792;2023-05-17T08:17:13;14.85;;;2.75;;
53309;SDS011;39197;53.200;5.792;2023-05-17T08:19:38;17.02;;;2.80;;
53309;SDS011;39197;53.200;5.792;2023-05-17T08:22:04;16.00;;;2.22;;
53309;SDS011;39197;53.200;5.792;2023-05-17T08:24:29;14.70;;;1.80;;
53309;SDS011;39197;53.200;5.792;2023-05-17T08:26:55;17.50;;;2.83;;
53309;SDS011;39197;53.200;5.792;2023-05-17T08:29:21;17.15;;;2.60;;
53309;SDS011;39197;53.200;5.792;2023-05-17T08:31:47;15.82;;;2.15;;
53309;SDS011;39197;53.200;5.792;2023-05-17T08:34:12;15.45;;;3.05;;
53309;SDS011;39197;53.200;5.792;2023-05-17T08:36:38;14.27;;;2.58;;
53309;SDS011;39197;53.200;5.792;2023-05-17T08:39:03;12.77;;;2.60;;
53309;SDS011;39197;53.200;5.792;2023-05-17T08:41:29;14.40;;;2.03;;
53309;SDS011;39197;53.200;5.792;2023-05-17T08:43:55;13.75;;;2.20;;
53309;SDS011;39197;53.200;5.792;2023-05-17T08:46:22;16.73;;;2.83;;
53309;SDS011;39197;53.200;5.792;2023-05-17T08:48:51;14.10;;;2.55;;
53309;SDS011;39197;53.200;5.792;2023-05-17T08:51:20;9.95;;;1.48;;
53309;SDS011;39197;53.200;5.792;2023-05-17T08:53:47;11.05;;;2.17;;
53309;SDS011;39197;53.200;5.792;2023-05-17T08:56:14;8.60;;;1.77;;
53309;SDS011;39197;53.200;5.792;2023-05-17T08:58:42;10.38;;;1.80;;
53309;SDS011;39197;53.200;5.792;2023-05-17T09:01:10;14.32;;;1.67;;
53309;SDS011;39197;53.200;5.792;2023-05-17T09:03:36;8.73;;;1.17;;
53309;SDS011;39197;53.200;5.792;2023-05-17T09:06:05;11.10;;;2.08;;
53309;SDS011;39197;53.200;5.792;2023-05-17T09:08:31;8.95;;;1.23;;
53309;SDS011;39197;53.200;5.792;2023-05-17T09:10:57;10.02;;;1.90;;
53309;SDS011;39197;53.200;5.792;2023-05-17T09:13:26;12.18;;;1.92;;
53309;SDS011;39197;53.200;5.792;2023-05-17T09:15:51;11.10;;;2.15;;
53309;SDS011;39197;53.200;5.792;2023-05-17T09:18:18;11.70;;;3.20;;
53309;SDS011;39197;53.200;5.792;2023-05-17T09:20:52;8.63;;;2.20;;
53309;SDS011;39197;53.200;5.792;2023-05-17T09:23:19;9.15;;;2.03;;
53309;SDS011;39197;53.200;5.792;2023-05-17T09:25:49;7.78;;;1.23;;
53309;SDS011;39197;53.200;5.792;2023-05-17T09:28:16;6.63;;;1.65;;
53309;SDS011;39197;53.200;5.792;2023-05-17T09:30:46;9.07;;;1.52;;
53309;SDS011;39197;53.200;5.792;2023-05-17T09:33:13;9.30;;;2.45;;
53309;SDS011;39197;53.200;5.792;2023-05-17T09:35:38;8.00;;;1.42;;
53309;SDS011;39197;53.200;5.792;2023-05-17T09:40:36;8.30;;;2.08;;
53309;SDS011;39197;53.200;5.792;2023-05-17T09:43:05;9.80;;;1.70;;
53309;SDS011;39197;53.200;5.792;2023-05-17T09:45:32;8.38;;;1.73;;
53309;SDS011;39197;53.200;5.792;2023-05-17T09:48:11;8.45;;;1.35;;
53309;SDS011;39197;53.200;5.792;2023-05-17T09:50:45;10.68;;;1.67;;
53309;SDS011;39197;53.200;5.792;2023-05-17T09:53:24;7.53;;;1.50;;
53309;SDS011;39197;53.200;5.792;2023-05-17T09:55:54;7.63;;;1.98;;
53309;SDS011;39197;53.200;5.792;2023-05-17T09:58:22;14.57;;;2.38;;
53309;SDS011;39197;53.200;5.792;2023-05-17T10:00:58;12.13;;;1.30;;
53309;SDS011;39197;53.200;5.792;2023-05-17T10:03:32;7.45;;;1.95;;
53309;SDS011;39197;53.200;5.792;2023-05-17T10:06:00;8.85;;;1.83;;
53309;SDS011;39197;53.200;5.792;2023-05-17T10:08:30;11.55;;;1.90;;
53309;SDS011;39197;53.200;5.792;2023-05-17T10:10:57;9.55;;;2.42;;
53309;SDS011;39197;53.200;5.792;2023-05-17T10:13:29;14.15;;;2.38;;
53309;SDS011;39197;53.200;5.792;2023-05-17T10:16:00;9.18;;;1.88;;
53309;SDS011;39197;53.200;5.792;2023-05-17T10:18:27;10.65;;;1.45;;
53309;SDS011;39197;53.200;5.792;2023-05-17T10:20:53;12.82;;;2.00;;
53309;SDS011;39197;53.200;5.792;2023-05-17T10:23:19;13.05;;;2.42;;
53309;SDS011;39197;53.200;5.792;2023-05-17T10:25:46;11.25;;;1.98;;
53309;SDS011;39197;53.200;5.792;2023-05-17T10:28:13;8.77;;;1.52;;
53309;SDS011;39197;53.200;5.792;2023-05-17T10:30:42;11.80;;;3.38;;
53309;SDS011;39197;53.200;5.792;2023-05-17T10:33:08;14.10;;;2.05;;
53309;SDS011;39197;53.200;5.792;2023-05-17T10:35:37;11.07;;;2.35;;
53309;SDS011;39197;53.200;5.792;2023-05-17T10:38:03;11.27;;;2.35;;
53309;SDS011;39197;53.200;5.792;2023-05-17T10:40:29;12.00;;;2.65;;
53309;SDS011;39197;53.200;5.792;2023-05-17T10:42:58;11.70;;;3.75;;
53309;SDS011;39197;53.200;5.792;2023-05-17T10:45:24;11.45;;;2.45;;
53309;SDS011;39197;53.200;5.792;2023-05-17T10:47:51;12.07;;;1.95;;
53309;SDS011;39197;53.200;5.792;2023-05-17T10:50:21;18.75;;;5.40;;
53309;SDS011;39197;53.200;5.792;2023-05-17T10:52:48;8.88;;;2.20;;
53309;SDS011;39197;53.200;5.792;2023-05-17T10:55:57;11.43;;;1.92;;
53309;SDS011;39197;53.200;5.792;2023-05-17T11:00:40;11.32;;;2.35;;
53309;SDS011;39197;53.200;5.792;2023-05-17T11:03:15;9.23;;;1.55;;
53309;SDS011;39197;53.200;5.792;2023-05-17T11:05:44;15.52;;;2.28;;
53309;SDS011;39197;53.200;5.792;2023-05-17T11:09:05;11.43;;;1.90;;
53309;SDS011;39197;53.200;5.792;2023-05-17T11:11:33;17.83;;;2.35;;
53309;SDS011;39197;53.200;5.792;2023-05-17T11:14:01;12.57;;;2.00;;
53309;SDS011;39197;53.200;5.792;2023-05-17T11:16:35;13.82;;;2.30;;
53309;SDS011;39197;53.200;5.792;2023-05-17T11:19:08;13.20;;;2.35;;
53309;SDS011;39197;53.200;5.792;2023-05-17T11:21:35;12.68;;;2.22;;
53309;SDS011;39197;53.200;5.792;2023-05-17T11:24:10;15.18;;;1.98;;
53309;SDS011;39197;53.200;5.792;2023-05-17T11:26:50;11.57;;;2.47;;
53309;SDS011;39197;53.200;5.792;2023-05-17T11:29:19;12.52;;;2.30;;
53309;SDS011;39197;53.200;5.792;2023-05-17T11:31:48;11.48;;;2.22;;
53309;SDS011;39197;53.200;5.792;2023-05-17T11:34:16;11.93;;;2.78;;
53309;SDS011;39197;53.200;5.792;2023-05-17T11:36:52;10.30;;;2.03;;
53309;SDS011;39197;53.200;5.792;2023-05-17T11:39:20;10.15;;;1.63;;
53309;SDS011;39197;53.200;5.792;2023-05-17T11:41:53;9.52;;;2.17;;
53309;SDS011;39197;53.200;5.792;2023-05-17T11:44:24;10.55;;;1.88;;
53309;SDS011;39197;53.200;5.792;2023-05-17T11:47:00;9.88;;;1.58;;
53309;SDS011;39197;53.200;5.792;2023-05-17T11:49:28;8.63;;;1.10;;
53309;SDS011;39197;53.200;5.792;2023-05-17T11:51:57;10.45;;;2.60;;
53309;SDS011;39197;53.200;5.792;2023-05-17T11:54:25;9.18;;;2.13;;
53309;SDS011;39197;53.200;5.792;2023-05-17T11:56:52;11.38;;;1.58;;
53309;SDS011;39197;53.200;5.792;2023-05-17T11:59:21;9.38;;;1.48;;
53309;SDS011;39197;53.200;5.792;2023-05-17T12:01:47;11.40;;;1.95;;
53309;SDS011;39197;53.200;5.792;2023-05-17T12:04:22;11.07;;;2.08;;
53309;SDS011;39197;53.200;5.792;2023-05-17T12:06:49;12.25;;;2.28;;
53309;SDS011;39197;53.200;5.792;2023-05-17T12:09:16;10.85;;;2.50;;
53309;SDS011;39197;53.200;5.792;2023-05-17T12:11:42;10.73;;;3.47;;
53309;SDS011;39197;53.200;5.792;2023-05-17T12:14:08;9.98;;;1.63;;
53309;SDS011;39197;53.200;5.792;2023-05-17T12:16:35;8.00;;;1.20;;
53309;SDS011;39197;53.200;5.792;2023-05-17T12:19:03;7.63;;;1.23;;
53309;SDS011;39197;53.200;5.792;2023-05-17T12:21:29;11.15;;;3.13;;
53309;SDS011;39197;53.200;5.792;2023-05-17T12:23:54;12.77;;;1.80;;
53309;SDS011;39197;53.200;5.792;2023-05-17T12:26:21;9.07;;;2.30;;
53309;SDS011;39197;53.200;5.792;2023-05-17T12:28:54;7.53;;;1.83;;
53309;SDS011;39197;53.200;5.792;2023-05-17T12:31:30;7.40;;;1.50;;
53309;SDS011;39197;53.200;5.792;2023-05-17T12:33:58;8.55;;;1.13;;
53309;SDS011;39197;53.200;5.792;2023-05-17T12:36:26;13.98;;;3.85;;
53309;SDS011;39197;53.200;5.792;2023-05-17T12:38:55;9.45;;;1.20;;
53309;SDS011;39197;53.200;5.792;2023-05-17T12:41:21;10.77;;;1.95;;
53309;SDS011;39197;53.200;5.792;2023-05-17T12:43:48;7.07;;;1.40;;
53309;SDS011;39197;53.200;5.792;2023-05-17T12:46:15;8.27;;;1.77;;
53309;SDS011;39197;53.200;5.792;2023-05-17T12:48:43;6.70;;;1.13;;
53309;SDS011;39197;53.200;5.792;2023-05-17T12:51:13;6.50;;;1.55;;
53309;SDS011;39197;53.200;5.792;2023-05-17T12:53:52;8.57;;;1.30;;
53309;SDS011;39197;53.200;5.792;2023-05-17T12:56:23;8.05;;;1.33;;
53309;SDS011;39197;53.200;5.792;2023-05-17T13:01:51;7.32;;;2.25;;
53309;SDS011;39197;53.200;5.792;2023-05-17T13:04:27;6.57;;;0.70;;
53309;SDS011;39197;53.200;5.792;2023-05-17T13:06:56;11.02;;;2.72;;
53309;SDS011;39197;53.200;5.792;2023-05-17T13:09:24;12.18;;;1.73;;
53309;SDS011;39197;53.200;5.792;2023-05-17T13:11:52;9.30;;;1.20;;
53309;SDS011;39197;53.200;5.792;2023-05-17T13:14:32;8.23;;;1.60;;
53309;SDS011;39197;53.200;5.792;2023-05-17T13:17:04;8.07;;;2.63;;
53309;SDS011;39197;53.200;5.792;2023-05-17T13:19:31;7.13;;;1.42;;
53309;SDS011;39197;53.200;5.792;2023-05-17T13:21:58;10.02;;;2.75;;
53309;SDS011;39197;53.200;5.792;2023-05-17T13:24:24;6.80;;;1.33;;
53309;SDS011;39197;53.200;5.792;2023-05-17T13:26:51;8.10;;;1.63;;
53309;SDS011;39197;53.200;5.792;2023-05-17T13:29:16;10.48;;;1.60;;
53309;SDS011;39197;53.200;5.792;2023-05-17T13:31:42;14.25;;;4.80;;
53309;SDS011;39197;53.200;5.792;2023-05-17T13:34:08;8.02;;;2.00;;
53309;SDS011;39197;53.200;5.792;2023-05-17T13:36:33;8.23;;;1.55;;
53309;SDS011;39197;53.200;5.792;2023-05-17T13:39:00;7.68;;;1.20;;
53309;SDS011;39197;53.200;5.792;2023-05-17T13:41:26;7.22;;;2.03;;
53309;SDS011;39197;53.200;5.792;2023-05-17T13:43:52;5.63;;;1.15;;
53309;SDS011;39197;53.200;5.792;2023-05-17T13:46:17;6.72;;;1.80;;
53309;SDS011;39197;53.200;5.792;2023-05-17T13:48:43;9.27;;;1.50;;
53309;SDS011;39197;53.200;5.792;2023-05-17T13:51:09;11.27;;;1.40;;
53309;SDS011;39197;53.200;5.792;2023-05-17T13:53:34;4.00;;;1.02;;
53309;SDS011;39197;53.200;5.792;2023-05-17T13:56:02;6.35;;;1.48;;
53309;SDS011;39197;53.200;5.792;2023-05-17T13:58:28;6.78;;;1.58;;
53309;SDS011;39197;53.200;5.792;2023-05-17T14:00:54;9.48;;;1.70;;
53309;SDS011;39197;53.200;5.792;2023-05-17T14:03:21;14.20;;;2.28;;
53309;SDS011;39197;53.200;5.792;2023-05-17T14:05:46;7.38;;;1.45;;
53309;SDS011;39197;53.200;5.792;2023-05-17T14:08:15;15.35;;;2.85;;
53309;SDS011;39197;53.200;5.792;2023-05-17T14:10:41;12.27;;;1.80;;
53309;SDS011;39197;53.200;5.792;2023-05-17T14:13:07;7.93;;;1.48;;
53309;SDS011;39197;53.200;5.792;2023-05-17T14:15:36;7.80;;;2.15;;
53309;SDS011;39197;53.200;5.792;2023-05-17T14:18:05;8.65;;;1.17;;
53309;SDS011;39197;53.200;5.792;2023-05-17T14:20:31;7.10;;;1.45;;
53309;SDS011;39197;53.200;5.792;2023-05-17T14:22:57;8.23;;;1.20;;
53309;SDS011;39197;53.200;5.792;2023-05-17T14:25:24;11.43;;;1.40;;
53309;SDS011;39197;53.200;5.792;2023-05-17T14:27:50;8.27;;;1.60;;
53309;SDS011;39197;53.200;5.792;2023-05-17T14:30:17;8.77;;;2.15;;
53309;SDS011;39197;53.200;5.792;2023-05-17T14:32:43;6.95;;;1.35;;
53309;SDS011;39197;53.200;5.792;2023-05-17T14:35:09;13.18;;;2.15;;
53309;SDS011;39197;53.200;5.792;2023-05-17T14:37:34;7.35;;;1.15;;
53309;SDS011;39197;53.200;5.792;2023-05-17T14:40:00;8.77;;;1.77;;
53309;SDS011;39197;53.200;5.792;2023-05-17T14:42:27;8.20;;;0.95;;
53309;SDS011;39197;53.200;5.792;2023-05-17T14:44:54;8.75;;;2.13;;
53309;SDS011;39197;53.200;5.792;2023-05-17T14:47:20;14.85;;;4.22;;
53309;SDS011;39197;53.200;5.792;2023-05-17T14:49:46;10.43;;;2.47;;
53309;SDS011;39197;53.200;5.792;2023-05-17T14:52:12;11.93;;;2.45;;
53309;SDS011;39197;53.200;5.792;2023-05-17T14:54:38;7.10;;;1.23;;